sensor_id;sensor_type;location;lat;lon;timestamp;temperature;humidity
52073;DHT22;38074;51.232;6.826;2023-04-24T00:05:09;24.20;44.90
52073;DHT22;38074;51.232;6.826;2023-04-24T00:12:25;24.20;44.90
52073;DHT22;38074;51.232;6.826;2023-04-24T00:19:41;24.20;44.90
52073;DHT22;38074;51.232;6.826;2023-04-24T00:26:57;24.20;44.80
52073;DHT22;38074;51.232;6.826;2023-04-24T00:34:12;24.20;44.80
52073;DHT22;38074;51.232;6.826;2023-04-24T00:41:28;24.20;44.70
52073;DHT22;38074;51.232;6.826;2023-04-24T00:48:43;24.20;44.70
52073;DHT22;38074;51.232;6.826;2023-04-24T00:56:00;24.20;44.60
52073;DHT22;38074;51.232;6.826;2023-04-24T01:03:15;24.20;44.50
52073;DHT22;38074;51.232;6.826;2023-04-24T01:10:33;24.20;44.50
52073;DHT22;38074;51.232;6.826;2023-04-24T01:17:49;24.20;44.40
52073;DHT22;38074;51.232;6.826;2023-04-24T01:25:05;24.20;44.20
52073;DHT22;38074;51.232;6.826;2023-04-24T01:32:21;24.20;44.30
52073;DHT22;38074;51.232;6.826;2023-04-24T01:39:37;24.20;44.30
52073;DHT22;38074;51.232;6.826;2023-04-24T01:46:52;24.20;44.20
52073;DHT22;38074;51.232;6.826;2023-04-24T01:54:09;24.20;44.20
52073;DHT22;38074;51.232;6.826;2023-04-24T02:01:24;24.20;44.10
52073;DHT22;38074;51.232;6.826;2023-04-24T02:08:41;24.20;44.10
52073;DHT22;38074;51.232;6.826;2023-04-24T02:15:58;24.20;44.00
52073;DHT22;38074;51.232;6.826;2023-04-24T02:23:13;24.20;43.90
52073;DHT22;38074;51.232;6.826;2023-04-24T02:30:29;24.20;43.90
52073;DHT22;38074;51.232;6.826;2023-04-24T02:37:45;24.20;43.90
52073;DHT22;38074;51.232;6.826;2023-04-24T02:45:01;24.20;43.80
52073;DHT22;38074;51.232;6.826;2023-04-24T02:52:16;24.20;43.80
52073;DHT22;38074;51.232;6.826;2023-04-24T02:59:32;24.20;43.70
52073;DHT22;38074;51.232;6.826;2023-04-24T03:06:48;24.20;43.70
52073;DHT22;38074;51.232;6.826;2023-04-24T03:14:03;24.20;44.30
52073;DHT22;38074;51.232;6.826;2023-04-24T03:21:19;24.20;43.60
52073;DHT22;38074;51.232;6.826;2023-04-24T03:28:34;24.20;43.50
52073;DHT22;38074;51.232;6.826;2023-04-24T03:35:50;24.20;43.50
52073;DHT22;38074;51.232;6.826;2023-04-24T03:43:05;24.20;43.50
52073;DHT22;38074;51.232;6.826;2023-04-24T03:50:21;24.20;43.50
52073;DHT22;38074;51.232;6.826;2023-04-24T03:57:36;24.20;43.40
52073;DHT22;38074;51.232;6.826;2023-04-24T04:04:52;24.20;43.40
52073;DHT22;38074;51.232;6.826;2023-04-24T04:12:07;24.20;43.40
52073;DHT22;38074;51.232;6.826;2023-04-24T04:19:23;24.20;43.40
52073;DHT22;38074;51.232;6.826;2023-04-24T04:26:38;24.20;43.40
52073;DHT22;38074;51.232;6.826;2023-04-24T04:33:54;24.20;43.30
52073;DHT22;38074;51.232;6.826;2023-04-24T04:41:10;24.20;43.20
52073;DHT22;38074;51.232;6.826;2023-04-24T04:48:27;24.20;43.20
52073;DHT22;38074;51.232;6.826;2023-04-24T04:55:42;24.20;43.10
52073;DHT22;38074;51.232;6.826;2023-04-24T05:02:58;24.20;43.10
52073;DHT22;38074;51.232;6.826;2023-04-24T05:10:13;24.10;43.00
52073;DHT22;38074;51.232;6.826;2023-04-24T05:17:29;24.20;43.30
52073;DHT22;38074;51.232;6.826;2023-04-24T05:24:44;24.30;43.30
52073;DHT22;38074;51.232;6.826;2023-04-24T05:32:00;24.20;43.20
52073;DHT22;38074;51.232;6.826;2023-04-24T05:39:16;24.20;43.00
52073;DHT22;38074;51.232;6.826;2023-04-24T05:46:32;24.10;42.70
52073;DHT22;38074;51.232;6.826;2023-04-24T05:53:48;24.10;42.60
52073;DHT22;38074;51.232;6.826;2023-04-24T06:01:03;24.10;43.20
52073;DHT22;38074;51.232;6.826;2023-04-24T06:08:19;24.10;42.60
52073;DHT22;38074;51.232;6.826;2023-04-24T06:15:34;24.10;42.60
52073;DHT22;38074;51.232;6.826;2023-04-24T06:22:50;24.20;43.50
52073;DHT22;38074;51.232;6.826;2023-04-24T06:30:06;24.20;43.60
52073;DHT22;38074;51.232;6.826;2023-04-24T06:37:22;24.20;43.60
52073;DHT22;38074;51.232;6.826;2023-04-24T06:44:38;24.20;43.70
52073;DHT22;38074;51.232;6.826;2023-04-24T06:51:56;24.20;43.70
52073;DHT22;38074;51.232;6.826;2023-04-24T06:59:11;24.20;43.70
52073;DHT22;38074;51.232;6.826;2023-04-24T07:06:27;24.20;43.90
52073;DHT22;38074;51.232;6.826;2023-04-24T07:13:42;24.30;43.90
52073;DHT22;38074;51.232;6.826;2023-04-24T07:20:59;24.40;43.90
52073;DHT22;38074;51.232;6.826;2023-04-24T07:28:14;24.40;43.80
52073;DHT22;38074;51.232;6.826;2023-04-24T07:35:30;24.50;43.80
52073;DHT22;38074;51.232;6.826;2023-04-24T07:42:46;24.50;43.80
52073;DHT22;38074;51.232;6.826;2023-04-24T07:50:03;24.60;43.80
52073;DHT22;38074;51.232;6.826;2023-04-24T07:57:19;24.60;43.80
52073;DHT22;38074;51.232;6.826;2023-04-24T08:04:35;24.60;43.80
52073;DHT22;38074;51.232;6.826;2023-04-24T08:11:50;24.60;43.80
52073;DHT22;38074;51.232;6.826;2023-04-24T08:19:06;24.60;43.90
52073;DHT22;38074;51.232;6.826;2023-04-24T08:26:22;24.60;43.90
52073;DHT22;38074;51.232;6.826;2023-04-24T08:33:38;24.60;43.90
52073;DHT22;38074;51.232;6.826;2023-04-24T08:40:53;24.60;43.90
52073;DHT22;38074;51.232;6.826;2023-04-24T08:48:10;24.60;43.90
52073;DHT22;38074;51.232;6.826;2023-04-24T08:55:25;24.60;43.90
52073;DHT22;38074;51.232;6.826;2023-04-24T09:02:42;24.70;43.90
52073;DHT22;38074;51.232;6.826;2023-04-24T09:10:02;24.70;43.90
52073;DHT22;38074;51.232;6.826;2023-04-24T09:17:18;24.70;43.90
52073;DHT22;38074;51.232;6.826;2023-04-24T09:24:34;24.70;43.90
52073;DHT22;38074;51.232;6.826;2023-04-24T09:31:50;24.70;43.90
52073;DHT22;38074;51.232;6.826;2023-04-24T09:39:11;24.70;43.80
52073;DHT22;38074;51.232;6.826;2023-04-24T09:46:30;24.70;43.80
52073;DHT22;38074;51.232;6.826;2023-04-24T09:53:47;24.70;43.80
52073;DHT22;38074;51.232;6.826;2023-04-24T10:01:03;24.70;43.70
52073;DHT22;38074;51.232;6.826;2023-04-24T10:08:19;24.70;43.70
52073;DHT22;38074;51.232;6.826;2023-04-24T10:15:35;24.70;43.70
52073;DHT22;38074;51.232;6.826;2023-04-24T10:22:52;24.60;43.70
52073;DHT22;38074;51.232;6.826;2023-04-24T10:30:09;24.60;43.60
52073;DHT22;38074;51.232;6.826;2023-04-24T10:37:28;24.40;43.60
52073;DHT22;38074;51.232;6.826;2023-04-24T10:44:47;24.40;43.60
52073;DHT22;38074;51.232;6.826;2023-04-24T10:52:04;24.40;43.90
52073;DHT22;38074;51.232;6.826;2023-04-24T10:59:34;24.40;43.60
52073;DHT22;38074;51.232;6.826;2023-04-24T11:06:52;24.30;43.40
52073;DHT22;38074;51.232;6.826;2023-04-24T11:14:08;24.40;43.70
52073;DHT22;38074;51.232;6.826;2023-04-24T11:21:23;24.50;43.70
52073;DHT22;38074;51.232;6.826;2023-04-24T11:28:49;24.50;43.60
52073;DHT22;38074;51.232;6.826;2023-04-24T11:36:05;24.50;43.50
52073;DHT22;38074;51.232;6.826;2023-04-24T11:43:21;24.50;43.60
52073;DHT22;38074;51.232;6.826;2023-04-24T11:50:37;24.50;43.50
52073;DHT22;38074;51.232;6.826;2023-04-24T11:57:55;24.50;43.50
52073;DHT22;38074;51.232;6.826;2023-04-24T12:05:29;24.50;43.50
52073;DHT22;38074;51.232;6.826;2023-04-24T12:12:46;24.50;43.40
52073;DHT22;38074;51.232;6.826;2023-04-24T12:20:07;24.50;43.40
52073;DHT22;38074;51.232;6.826;2023-04-24T12:27:23;24.60;43.40
52073;DHT22;38074;51.232;6.826;2023-04-24T12:34:38;24.60;43.40
52073;DHT22;38074;51.232;6.826;2023-04-24T12:41:55;24.60;43.40
52073;DHT22;38074;51.232;6.826;2023-04-24T12:49:12;24.60;43.30
52073;DHT22;38074;51.232;6.826;2023-04-24T12:56:27;24.60;43.30
52073;DHT22;38074;51.232;6.826;2023-04-24T13:03:43;24.60;43.20
52073;DHT22;38074;51.232;6.826;2023-04-24T13:10:59;24.60;43.10
52073;DHT22;38074;51.232;6.826;2023-04-24T13:18:14;24.60;43.00
52073;DHT22;38074;51.232;6.826;2023-04-24T13:25:35;24.60;42.90
52073;DHT22;38074;51.232;6.826;2023-04-24T13:32:51;24.60;42.80
52073;DHT22;38074;51.232;6.826;2023-04-24T13:40:08;24.60;42.80
52073;DHT22;38074;51.232;6.826;2023-04-24T13:47:24;24.60;43.30
52073;DHT22;38074;51.232;6.826;2023-04-24T13:54:39;24.60;42.70
52073;DHT22;38074;51.232;6.826;2023-04-24T14:01:55;24.60;42.60
52073;DHT22;38074;51.232;6.826;2023-04-24T14:09:10;24.60;42.60
52073;DHT22;38074;51.232;6.826;2023-04-24T14:16:26;24.50;42.40
52073;DHT22;38074;51.232;6.826;2023-04-24T14:23:42;24.60;42.50
52073;DHT22;38074;51.232;6.826;2023-04-24T14:30:57;24.60;42.30
52073;DHT22;38074;51.232;6.826;2023-04-24T14:38:13;24.60;42.30
52073;DHT22;38074;51.232;6.826;2023-04-24T14:45:29;24.60;42.20
52073;DHT22;38074;51.232;6.826;2023-04-24T14:52:44;24.60;42.20
52073;DHT22;38074;51.232;6.826;2023-04-24T15:00:00;24.60;42.10
52073;DHT22;38074;51.232;6.826;2023-04-24T15:07:15;24.60;42.10
52073;DHT22;38074;51.232;6.826;2023-04-24T15:14:31;24.60;42.10
52073;DHT22;38074;51.232;6.826;2023-04-24T15:21:46;24.60;42.00
52073;DHT22;38074;51.232;6.826;2023-04-24T15:29:02;24.60;41.90
52073;DHT22;38074;51.232;6.826;2023-04-24T15:36:18;24.60;41.90
52073;DHT22;38074;51.232;6.826;2023-04-24T15:43:34;24.60;41.80
52073;DHT22;38074;51.232;6.826;2023-04-24T15:50:49;24.60;41.80
52073;DHT22;38074;51.232;6.826;2023-04-24T15:58:05;24.60;41.70
52073;DHT22;38074;51.232;6.826;2023-04-24T16:05:21;24.60;41.70
52073;DHT22;38074;51.232;6.826;2023-04-24T16:12:38;24.60;41.70
52073;DHT22;38074;51.232;6.826;2023-04-24T16:19:54;24.60;41.70
52073;DHT22;38074;51.232;6.826;2023-04-24T16:27:09;24.70;41.70
52073;DHT22;38074;51.232;6.826;2023-04-24T16:34:25;24.60;41.70
52073;DHT22;38074;51.232;6.826;2023-04-24T16:41:41;24.60;41.70
52073;DHT22;38074;51.232;6.826;2023-04-24T16:48:57;24.60;41.70
52073;DHT22;38074;51.232;6.826;2023-04-24T16:56:12;24.60;41.60
52073;DHT22;38074;51.232;6.826;2023-04-24T17:03:28;24.70;41.70
52073;DHT22;38074;51.232;6.826;2023-04-24T17:10:44;24.70;41.70
52073;DHT22;38074;51.232;6.826;2023-04-24T17:18:00;24.70;41.70
52073;DHT22;38074;51.232;6.826;2023-04-24T17:25:16;24.70;41.80
52073;DHT22;38074;51.232;6.826;2023-04-24T17:32:32;24.70;41.80
52073;DHT22;38074;51.232;6.826;2023-04-24T17:39:48;24.70;41.80
52073;DHT22;38074;51.232;6.826;2023-04-24T17:47:04;24.70;41.90
52073;DHT22;38074;51.232;6.826;2023-04-24T17:54:19;24.70;41.80
52073;DHT22;38074;51.232;6.826;2023-04-24T18:01:35;24.70;41.80
52073;DHT22;38074;51.232;6.826;2023-04-24T18:08:50;24.60;41.80
52073;DHT22;38074;51.232;6.826;2023-04-24T18:16:06;24.70;41.90
52073;DHT22;38074;51.232;6.826;2023-04-24T18:23:22;24.70;41.80
52073;DHT22;38074;51.232;6.826;2023-04-24T18:30:37;24.70;41.80
52073;DHT22;38074;51.232;6.826;2023-04-24T18:37:53;24.70;41.90
52073;DHT22;38074;51.232;6.826;2023-04-24T18:45:09;24.60;41.90
52073;DHT22;38074;51.232;6.826;2023-04-24T18:52:25;24.60;41.40
52073;DHT22;38074;51.232;6.826;2023-04-24T18:59:40;24.50;41.40
52073;DHT22;38074;51.232;6.826;2023-04-24T19:06:56;24.50;41.40
52073;DHT22;38074;51.232;6.826;2023-04-24T19:14:12;24.60;41.50
52073;DHT22;38074;51.232;6.826;2023-04-24T19:21:27;24.60;41.60
52073;DHT22;38074;51.232;6.826;2023-04-24T19:28:43;24.70;41.60
52073;DHT22;38074;51.232;6.826;2023-04-24T19:35:59;24.60;41.50
52073;DHT22;38074;51.232;6.826;2023-04-24T19:43:15;24.50;41.40
52073;DHT22;38074;51.232;6.826;2023-04-24T19:50:30;24.50;41.50
52073;DHT22;38074;51.232;6.826;2023-04-24T19:57:45;24.50;41.40
52073;DHT22;38074;51.232;6.826;2023-04-24T20:05:01;24.40;41.30
52073;DHT22;38074;51.232;6.826;2023-04-24T20:12:17;24.40;41.30
52073;DHT22;38074;51.232;6.826;2023-04-24T20:19:33;24.40;41.10
52073;DHT22;38074;51.232;6.826;2023-04-24T20:26:49;24.40;41.10
52073;DHT22;38074;51.232;6.826;2023-04-24T20:34:05;24.30;40.90
52073;DHT22;38074;51.232;6.826;2023-04-24T20:41:20;24.30;40.80
52073;DHT22;38074;51.232;6.826;2023-04-24T20:48:36;24.30;40.80
52073;DHT22;38074;51.232;6.826;2023-04-24T20:55:51;24.30;40.70
52073;DHT22;38074;51.232;6.826;2023-04-24T21:03:07;24.30;40.60
52073;DHT22;38074;51.232;6.826;2023-04-24T21:10:23;24.30;40.60
52073;DHT22;38074;51.232;6.826;2023-04-24T21:17:39;24.30;40.50
52073;DHT22;38074;51.232;6.826;2023-04-24T21:24:55;24.30;40.40
52073;DHT22;38074;51.232;6.826;2023-04-24T21:32:10;24.30;40.30
52073;DHT22;38074;51.232;6.826;2023-04-24T21:39:26;24.30;40.30
52073;DHT22;38074;51.232;6.826;2023-04-24T21:46:41;24.30;40.20
52073;DHT22;38074;51.232;6.826;2023-04-24T21:53:58;24.30;40.10
52073;DHT22;38074;51.232;6.826;2023-04-24T22:01:13;24.30;40.00
52073;DHT22;38074;51.232;6.826;2023-04-24T22:08:29;24.30;40.00
52073;DHT22;38074;51.232;6.826;2023-04-24T22:15:48;24.30;39.90
52073;DHT22;38074;51.232;6.826;2023-04-24T22:23:04;24.20;39.70
52073;DHT22;38074;51.232;6.826;2023-04-24T22:30:19;24.20;39.70
52073;DHT22;38074;51.232;6.826;2023-04-24T22:37:35;24.30;40.30
52073;DHT22;38074;51.232;6.826;2023-04-24T22:44:51;24.20;39.50
52073;DHT22;38074;51.232;6.826;2023-04-24T22:52:06;24.20;39.40
52073;DHT22;38074;51.232;6.826;2023-04-24T22:59:23;24.30;39.50
52073;DHT22;38074;51.232;6.826;2023-04-24T23:06:38;24.20;39.40
52073;DHT22;38074;51.232;6.826;2023-04-24T23:13:54;24.20;39.30
52073;DHT22;38074;51.232;6.826;2023-04-24T23:21:10;24.20;39.20
52073;DHT22;38074;51.232;6.826;2023-04-24T23:28:26;24.20;39.10
52073;DHT22;38074;51.232;6.826;2023-04-24T23:35:42;24.20;39.10
52073;DHT22;38074;51.232;6.826;2023-04-24T23:42:57;24.20;39.00
52073;DHT22;38074;51.232;6.826;2023-04-24T23:50:13;24.20;38.90
52073;DHT22;38074;51.232;6.826;2023-04-24T23:57:29;24.20;39.00
